createdAt,value
2018-06-12T00:00:31.984Z,96106.59
2018-06-12T00:02:59.173Z,96106.02
2018-06-12T00:05:26.393Z,96109.23
2018-06-12T00:07:53.580Z,96105.18
2018-06-12T00:10:20.827Z,96107.47
2018-06-12T00:12:48.030Z,96109.19
2018-06-12T00:15:15.259Z,96117.25
2018-06-12T00:17:42.456Z,96120.08
2018-06-12T00:20:09.682Z,96119.27
2018-06-12T00:22:36.853Z,96119.12
2018-06-12T00:25:04.085Z,96116.06
2018-06-12T00:27:31.680Z,96112.13
2018-06-12T00:29:58.834Z,96110.16
2018-06-12T00:32:26.025Z,96114.02
2018-06-12T00:34:53.201Z,96112.58
2018-06-12T00:37:20.369Z,96115.73
2018-06-12T00:39:47.512Z,96117.45
2018-06-12T00:42:14.712Z,96120.81
2018-06-12T00:44:41.830Z,96127.83
2018-06-12T00:47:09.016Z,96137.41
2018-06-12T00:49:36.187Z,96127.95
2018-06-12T00:52:03.383Z,96137.48
2018-06-12T00:54:30.536Z,96136.25
2018-06-12T00:57:05.696Z,96133.56
2018-06-12T00:59:32.892Z,96144.02
2018-06-12T01:02:00.017Z,96141.20
2018-06-12T01:04:27.185Z,96143.70
2018-06-12T01:06:54.331Z,96147.87
2018-06-12T01:09:21.597Z,96151.37
2018-06-12T01:11:48.741Z,96149.48
2018-06-12T01:14:15.921Z,96153.89
2018-06-12T01:16:43.084Z,96152.19
2018-06-12T01:19:10.256Z,96155.42
2018-06-12T01:21:37.412Z,96157.89
2018-06-12T01:24:04.583Z,96153.69
2018-06-12T01:26:31.742Z,96155.09
2018-06-12T01:28:58.928Z,96155.79
2018-06-12T01:31:26.143Z,96154.98
2018-06-12T01:33:53.287Z,96160.94
2018-06-12T01:36:20.537Z,96163.77
2018-06-12T01:38:47.732Z,96166.87
2018-06-12T01:41:14.939Z,96160.10
2018-06-12T01:43:42.065Z,96155.38
2018-06-12T01:46:09.211Z,96160.23
2018-06-12T01:48:36.418Z,96156.30
2018-06-12T01:51:03.545Z,96155.58
2018-06-12T01:53:30.685Z,96154.14
2018-06-12T01:55:57.786Z,96155.80
2018-06-12T01:58:24.926Z,96148.81
2018-06-12T02:00:52.068Z,96148.89
2018-06-12T02:03:19.210Z,96144.90
2018-06-12T02:05:46.406Z,96141.41
2018-06-12T02:08:13.617Z,96146.27
2018-06-12T02:10:40.757Z,96146.52
2018-06-12T02:13:07.899Z,96148.42
2018-06-12T02:15:35.158Z,96143.98
2018-06-12T02:18:02.363Z,96140.15
2018-06-12T02:20:29.588Z,96152.58
2018-06-12T02:22:56.863Z,96158.83
2018-06-12T02:25:24.038Z,96160.92
2018-06-12T02:27:51.216Z,96157.38
2018-06-12T02:30:18.332Z,96161.81
2018-06-12T02:32:45.505Z,96160.73
2018-06-12T02:35:12.668Z,96166.20
2018-06-12T02:37:39.823Z,96164.19
2018-06-12T02:40:06.968Z,96173.98
2018-06-12T02:42:34.172Z,96178.38
2018-06-12T02:45:01.375Z,96183.23
2018-06-12T02:47:28.543Z,96187.94
2018-06-12T02:49:55.690Z,96186.01
2018-06-12T02:52:22.842Z,96181.38
2018-06-12T02:54:49.972Z,96180.27
2018-06-12T02:57:17.117Z,96171.55
2018-06-12T02:59:44.275Z,96165.45
2018-06-12T03:02:11.449Z,96165.48
2018-06-12T03:04:38.570Z,96172.38
2018-06-12T03:07:05.752Z,96160.11
2018-06-12T03:09:32.916Z,96160.20
2018-06-12T03:12:00.120Z,96158.83
2018-06-12T03:14:27.289Z,96158.47
2018-06-12T03:16:54.490Z,96151.81
2018-06-12T03:19:21.726Z,96154.11
2018-06-12T03:21:48.930Z,96153.91
2018-06-12T03:24:16.078Z,96162.34
2018-06-12T03:26:43.187Z,96160.97
2018-06-12T03:29:10.369Z,96157.50
2018-06-12T03:31:37.563Z,96154.31
2018-06-12T03:34:04.738Z,96149.71
2018-06-12T03:36:31.957Z,96153.18
2018-06-12T03:38:59.151Z,96152.48
2018-06-12T03:41:26.325Z,96156.62
2018-06-12T03:43:53.524Z,96159.63
2018-06-12T03:46:20.705Z,96160.77
2018-06-12T03:48:47.883Z,96161.33
2018-06-12T03:51:15.087Z,96169.06
2018-06-12T03:53:42.232Z,96168.72
2018-06-12T03:56:09.396Z,96164.70
2018-06-12T03:58:36.548Z,96161.86
2018-06-12T04:01:03.799Z,96164.68
2018-06-12T04:03:30.964Z,96173.09
2018-06-12T04:05:58.149Z,96176.64
2018-06-12T04:08:25.327Z,96183.17
2018-06-12T04:10:52.489Z,96182.95
2018-06-12T04:13:19.957Z,96177.97
2018-06-12T04:15:47.173Z,96187.19
2018-06-12T04:18:14.374Z,96192.56
2018-06-12T04:20:41.520Z,96194.58
2018-06-12T04:23:08.719Z,96191.30
2018-06-12T04:25:35.901Z,96194.09
2018-06-12T04:28:03.145Z,96191.51
2018-06-12T04:30:30.310Z,96197.09
2018-06-12T04:32:57.459Z,96196.13
2018-06-12T04:35:24.619Z,96206.17
2018-06-12T04:37:51.742Z,96204.00
2018-06-12T04:40:18.888Z,96209.41
2018-06-12T04:42:46.039Z,96210.70
2018-06-12T04:45:13.185Z,96210.88
2018-06-12T04:47:40.351Z,96209.23
2018-06-12T04:50:07.517Z,96215.76
2018-06-12T04:52:34.665Z,96217.19
2018-06-12T04:55:01.780Z,96215.42
2018-06-12T04:57:28.889Z,96219.73
2018-06-12T04:59:56.003Z,96225.06
2018-06-12T05:02:23.100Z,96226.91
2018-06-12T05:04:50.200Z,96229.61
2018-06-12T05:07:17.332Z,96230.54
2018-06-12T05:09:44.431Z,96227.98
2018-06-12T05:12:11.570Z,96233.86
2018-06-12T05:14:38.720Z,96228.94
2018-06-12T05:17:05.869Z,96233.66
2018-06-12T05:19:33.058Z,96229.80
2018-06-12T05:22:00.249Z,96230.98
2018-06-12T05:24:27.563Z,96231.75
2018-06-12T05:26:54.938Z,96234.73
2018-06-12T05:29:22.025Z,96236.91
2018-06-12T05:31:49.112Z,96234.94
2018-06-12T05:34:16.242Z,96241.17
2018-06-12T05:36:43.423Z,96241.01
2018-06-12T05:39:11.044Z,96244.04
2018-06-12T05:41:38.765Z,96247.33
2018-06-12T05:44:05.872Z,96252.80
2018-06-12T05:46:33.016Z,96254.94
2018-06-12T05:49:00.163Z,96253.86
2018-06-12T05:51:27.333Z,96255.47
2018-06-12T05:53:54.434Z,96254.50
2018-06-12T05:56:21.576Z,96265.67
2018-06-12T05:58:48.738Z,96270.44
2018-06-12T06:01:15.918Z,96273.50
2018-06-12T06:03:43.083Z,96272.06
2018-06-12T06:06:10.216Z,96266.08
2018-06-12T06:08:37.344Z,96271.04
2018-06-12T06:11:04.487Z,96267.92
2018-06-12T06:13:31.612Z,96280.98
2018-06-12T06:15:58.746Z,96273.02
2018-06-12T06:18:25.943Z,96284.56
2018-06-12T06:20:53.043Z,96290.10
2018-06-12T06:23:20.231Z,96294.96
2018-06-12T06:25:47.424Z,96299.38
2018-06-12T06:28:14.552Z,96304.28
2018-06-12T06:30:41.689Z,96308.88
2018-06-12T06:33:08.828Z,96313.80
2018-06-12T06:35:36.033Z,96308.10
2018-06-12T06:38:03.203Z,96305.44
2018-06-12T06:40:30.309Z,96306.24
2018-06-12T06:42:57.526Z,96306.02
2018-06-12T06:45:24.588Z,96311.21
2018-06-12T06:47:51.797Z,96310.07
2018-06-12T06:50:18.968Z,96309.39
2018-06-12T06:52:46.132Z,96303.16
2018-06-12T06:55:13.322Z,96303.23
2018-06-12T06:57:40.508Z,96307.39
2018-06-12T07:00:07.685Z,96311.47
2018-06-12T07:02:34.850Z,96309.50
2018-06-12T07:05:02.014Z,96313.28
2018-06-12T07:07:29.181Z,96313.91
2018-06-12T07:09:56.395Z,96315.86
2018-06-12T07:12:23.556Z,96319.36
2018-06-12T07:14:50.725Z,96312.84
2018-06-12T07:17:17.963Z,96313.94
2018-06-12T07:19:45.139Z,96315.55
2018-06-12T07:22:12.304Z,96314.28
2018-06-12T07:24:39.477Z,96312.73
2018-06-12T07:27:06.693Z,96317.33
2018-06-12T07:29:33.858Z,96313.98
2018-06-12T07:32:01.480Z,96322.20
2018-06-12T07:34:28.726Z,96311.84
2018-06-12T07:36:55.888Z,96303.78
2018-06-12T07:39:23.139Z,96304.63
2018-06-12T07:41:50.333Z,96302.92
2018-06-12T07:44:17.565Z,96308.59
2018-06-12T07:46:44.733Z,96305.09
2018-06-12T07:49:11.886Z,96307.34
2018-06-12T07:51:39.039Z,96307.24
2018-06-12T07:54:06.224Z,96298.70
2018-06-12T07:56:33.450Z,96301.84
2018-06-12T07:59:00.645Z,96304.28
2018-06-12T08:01:28.168Z,96299.47
2018-06-12T08:03:55.353Z,96300.31
2018-06-12T08:06:22.550Z,96301.44
2018-06-12T08:08:49.739Z,96302.98
2018-06-12T08:11:16.888Z,96305.77
2018-06-12T08:13:44.048Z,96298.55
2018-06-12T08:16:11.233Z,96298.93
2018-06-12T08:18:38.524Z,96306.20
2018-06-12T08:21:05.621Z,96306.78
2018-06-12T08:23:32.808Z,96305.48
2018-06-12T08:25:59.969Z,96303.95
2018-06-12T08:28:27.137Z,96298.68
2018-06-12T08:30:54.278Z,96301.00
2018-06-12T08:33:21.505Z,96298.31
2018-06-12T08:35:48.713Z,96298.70
2018-06-12T08:38:15.884Z,96302.53
2018-06-12T08:40:42.991Z,96306.52
2018-06-12T08:43:10.164Z,96293.73
2018-06-12T08:45:37.375Z,96287.79
2018-06-12T08:48:04.652Z,96283.77
2018-06-12T08:50:31.892Z,96286.27
2018-06-12T08:52:59.040Z,96290.47
2018-06-12T08:55:26.210Z,96290.27
2018-06-12T08:57:53.330Z,96297.56
2018-06-12T09:00:20.469Z,96291.23
2018-06-12T09:02:47.636Z,96294.48
2018-06-12T09:05:14.839Z,96303.48
2018-06-12T09:07:42.005Z,96291.05
2018-06-12T09:10:09.204Z,96304.82
2018-06-12T09:12:36.374Z,96303.10
2018-06-12T09:15:03.691Z,96307.69
2018-06-12T09:17:30.920Z,96302.34
2018-06-12T09:19:58.143Z,96305.23
2018-06-12T09:22:25.277Z,96304.45
2018-06-12T09:24:52.416Z,96305.80
2018-06-12T09:27:19.624Z,96306.53
2018-06-12T09:29:46.836Z,96298.91
2018-06-12T09:32:14.024Z,96304.45
2018-06-12T09:34:41.190Z,96299.27
2018-06-12T09:37:08.334Z,96296.20
2018-06-12T09:39:35.480Z,96304.56
2018-06-12T09:42:02.660Z,96308.25
2018-06-12T09:44:29.835Z,96306.76
2018-06-12T09:46:56.995Z,96306.52
2018-06-12T09:49:24.181Z,96306.36
2018-06-12T09:51:51.348Z,96317.28
2018-06-12T09:54:18.516Z,96314.22
2018-06-12T09:56:45.672Z,96317.08
2018-06-12T09:59:12.808Z,96315.95
2018-06-12T10:01:39.949Z,96324.55
2018-06-12T10:04:07.179Z,96319.37
2018-06-12T10:06:34.352Z,96319.20
2018-06-12T10:09:01.536Z,96320.53
2018-06-12T10:11:28.720Z,96323.61
2018-06-12T10:13:55.899Z,96319.56
2018-06-12T10:16:23.065Z,96321.30
2018-06-12T10:18:50.318Z,96333.16
2018-06-12T10:21:17.523Z,96325.13
2018-06-12T10:23:44.688Z,96321.87
2018-06-12T10:26:11.929Z,96319.58
2018-06-12T10:28:39.135Z,96322.27
2018-06-12T10:31:06.354Z,96317.28
2018-06-12T10:33:33.545Z,96323.40
2018-06-12T10:36:00.745Z,96325.34
2018-06-12T10:38:27.930Z,96321.13
2018-06-12T10:40:55.132Z,96327.63
2018-06-12T10:43:22.353Z,96326.29
2018-06-12T10:45:49.521Z,96319.98
2018-06-12T10:48:16.735Z,96319.98
2018-06-12T10:50:43.946Z,96321.69
2018-06-12T10:53:11.132Z,96314.78
2018-06-12T10:55:38.363Z,96323.59
2018-06-12T10:58:05.636Z,96314.63
2018-06-12T11:00:32.879Z,96319.37
2018-06-12T11:03:00.080Z,96313.24
2018-06-12T11:05:27.257Z,96320.54
2018-06-12T11:07:54.479Z,96318.80
2018-06-12T11:10:21.753Z,96312.67
2018-06-12T11:12:48.964Z,96318.42
2018-06-12T11:15:16.181Z,96312.13
2018-06-12T11:17:43.408Z,96311.33
2018-06-12T11:20:10.687Z,96314.20
2018-06-12T11:22:37.897Z,96310.20
2018-06-12T11:25:05.172Z,96306.94
2018-06-12T11:27:32.444Z,96302.52
2018-06-12T11:29:59.675Z,96295.44
2018-06-12T11:32:26.867Z,96297.94
2018-06-12T11:34:54.128Z,96299.28
2018-06-12T11:37:21.353Z,96296.22
2018-06-12T11:39:48.577Z,96292.39
2018-06-12T11:42:15.738Z,96290.08
2018-06-12T11:44:42.969Z,96286.44
2018-06-12T11:47:10.170Z,96292.75
2018-06-12T11:49:37.385Z,96295.05
2018-06-12T11:52:04.776Z,96293.53
2018-06-12T11:54:31.962Z,96288.54
2018-06-12T11:56:59.161Z,96285.30
2018-06-12T11:59:26.379Z,96285.48
2018-06-12T12:01:53.609Z,96280.52
2018-06-12T12:04:20.858Z,96273.99
2018-06-12T12:06:48.057Z,96265.19
2018-06-12T12:09:15.252Z,96255.42
2018-06-12T12:11:42.473Z,96262.68
2018-06-12T12:14:10.472Z,96262.82
2018-06-12T12:16:37.752Z,96254.75
2018-06-12T12:19:04.958Z,96257.25
2018-06-12T12:21:32.157Z,96249.65
2018-06-12T12:23:59.349Z,96244.44
2018-06-12T12:26:26.653Z,96248.45
2018-06-12T12:28:53.899Z,96243.84
2018-06-12T12:31:21.145Z,96240.98
2018-06-12T12:33:48.373Z,96237.38
2018-06-12T12:36:15.589Z,96238.77
2018-06-12T12:38:42.826Z,96244.30
2018-06-12T12:41:10.055Z,96244.37
2018-06-12T12:43:37.350Z,96240.84
2018-06-12T12:46:04.636Z,96241.88
2018-06-12T12:48:31.833Z,96245.36
2018-06-12T12:50:59.007Z,96244.80
2018-06-12T12:53:26.204Z,96238.69
2018-06-12T12:55:53.491Z,96248.77
2018-06-12T12:58:20.738Z,96238.31
2018-06-12T13:00:47.958Z,96238.08
2018-06-12T13:03:15.201Z,96235.52
2018-06-12T13:05:42.405Z,96231.78
2018-06-12T13:08:16.310Z,96224.65
2018-06-12T13:10:43.532Z,96219.84
2018-06-12T13:13:10.775Z,96217.75
2018-06-12T13:15:38.022Z,96211.05
2018-06-12T13:18:05.444Z,96211.14
2018-06-12T13:20:32.684Z,96217.94
2018-06-12T13:22:59.917Z,96214.09
2018-06-12T13:25:27.208Z,96208.16
2018-06-12T13:27:54.472Z,96205.84
2018-06-12T13:30:21.737Z,96209.50
2018-06-12T13:32:48.944Z,96211.91
2018-06-12T13:35:16.299Z,96207.09
2018-06-12T13:37:43.604Z,96207.99
2018-06-12T13:40:10.788Z,96202.25
2018-06-12T13:42:38.015Z,96205.02
2018-06-12T13:45:05.258Z,96205.20
2018-06-12T13:47:32.548Z,96193.29
2018-06-12T13:49:59.829Z,96186.11
2018-06-12T13:52:27.130Z,96190.87
2018-06-12T13:54:54.379Z,96185.93
2018-06-12T13:57:21.584Z,96185.92
2018-06-12T13:59:48.804Z,96183.50
2018-06-12T14:02:16.004Z,96183.73
2018-06-12T14:04:43.235Z,96177.47
2018-06-12T14:07:10.434Z,96175.76
2018-06-12T14:09:37.648Z,96174.42
2018-06-12T14:12:04.933Z,96170.10
2018-06-12T14:14:32.185Z,96166.66
2018-06-12T14:17:00.707Z,96186.55
2018-06-12T14:19:28.004Z,96182.45
2018-06-12T14:21:55.248Z,96182.59
2018-06-12T14:24:22.494Z,96186.06
2018-06-12T14:26:49.719Z,96178.73
2018-06-12T14:29:16.962Z,96175.50
2018-06-12T14:31:44.232Z,96184.66
2018-06-12T14:34:11.471Z,96189.02
2018-06-12T14:49:38.372Z,96184.84
2018-06-12T14:52:05.594Z,96176.70
2018-06-12T14:54:32.868Z,96181.59
2018-06-12T14:57:00.050Z,96182.22
2018-06-12T14:59:27.244Z,96179.17
2018-06-12T15:01:54.442Z,96175.77
2018-06-12T15:04:21.725Z,96182.16
2018-06-12T15:06:48.964Z,96180.95
2018-06-12T15:09:16.248Z,96177.70
2018-06-12T15:11:43.426Z,96173.97
2018-06-12T15:14:10.634Z,96174.08
2018-06-12T15:16:37.838Z,96169.95
2018-06-12T15:19:05.177Z,96172.62
2018-06-12T15:21:32.749Z,96173.16
2018-06-12T15:23:59.983Z,96172.63
2018-06-12T15:26:27.177Z,96171.70
2018-06-12T15:28:54.453Z,96172.59
2018-06-12T15:31:21.673Z,96169.34
2018-06-12T15:33:48.911Z,96159.43
2018-06-12T15:36:16.043Z,96161.44
2018-06-12T15:38:43.293Z,96167.08
2018-06-12T15:41:10.528Z,96160.88
2018-06-12T15:43:37.745Z,96161.98
2018-06-12T15:46:05.063Z,96168.12
2018-06-12T15:48:32.785Z,96169.95
2018-06-12T15:51:00.073Z,96169.05
2018-06-12T15:53:27.285Z,96157.82
2018-06-12T15:55:54.532Z,96161.05
2018-06-12T15:58:21.761Z,96157.64
2018-06-12T16:00:49.054Z,96157.20
2018-06-12T16:03:16.149Z,96158.61
2018-06-12T16:05:43.425Z,96157.57
2018-06-12T16:08:10.600Z,96155.69
2018-06-12T16:10:37.797Z,96157.06
2018-06-12T16:13:05.023Z,96152.20
2018-06-12T16:15:32.233Z,96157.86
2018-06-12T16:17:59.497Z,96116.89
2018-06-12T16:20:26.678Z,96149.34
2018-06-12T16:22:53.850Z,96146.17
2018-06-12T16:25:21.075Z,96148.71
2018-06-12T16:27:48.307Z,96151.80
2018-06-12T16:30:15.537Z,96144.28
2018-06-12T16:32:42.760Z,96150.44
2018-06-12T16:35:10.057Z,96141.59
2018-06-12T16:37:37.312Z,96140.41
2018-06-12T16:40:04.590Z,96141.44
2018-06-12T16:42:31.777Z,96143.41
2018-06-12T16:44:59.012Z,96149.44
2018-06-12T16:47:26.202Z,96141.59
2018-06-12T16:49:53.443Z,96142.10
2018-06-12T16:52:20.640Z,96145.84
2018-06-12T16:54:47.878Z,96145.30
2018-06-12T16:57:15.138Z,96134.76
2018-06-12T16:59:42.344Z,96136.86
2018-06-12T17:02:09.561Z,96140.69
2018-06-12T17:04:36.805Z,96137.42
2018-06-12T17:07:04.127Z,96137.66
2018-06-12T17:09:31.307Z,96137.48
2018-06-12T17:11:58.486Z,96140.39
2018-06-12T17:14:25.717Z,96137.92
2018-06-12T17:16:52.936Z,96143.66
2018-06-12T17:19:20.288Z,96142.52
2018-06-12T17:21:47.429Z,96142.50
2018-06-12T17:24:14.671Z,96143.28
2018-06-12T17:26:41.812Z,96142.71
2018-06-12T17:29:09.050Z,96151.11
2018-06-12T17:31:36.308Z,96152.03
2018-06-12T17:34:03.511Z,96150.52
2018-06-12T17:36:30.692Z,96160.45
2018-06-12T17:38:57.860Z,96152.56
2018-06-12T17:41:25.030Z,96154.90
2018-06-12T17:43:52.239Z,96155.07
2018-06-12T17:46:19.457Z,96166.31
2018-06-12T17:48:46.621Z,96149.88
2018-06-12T17:51:13.870Z,96167.62
2018-06-12T17:53:41.070Z,96157.74
2018-06-12T17:56:08.269Z,96165.36
2018-06-12T17:58:35.417Z,96167.49
2018-06-12T18:01:02.600Z,96168.27
2018-06-12T18:03:29.744Z,96160.17
2018-06-12T18:05:57.028Z,96167.27
2018-06-12T18:08:24.274Z,96169.62
2018-06-12T18:10:51.515Z,96172.08
2018-06-12T18:13:18.719Z,96169.24
2018-06-12T18:15:45.889Z,96165.97
2018-06-12T18:18:13.165Z,96161.41
2018-06-12T18:20:44.915Z,96156.78
2018-06-12T18:23:12.124Z,96147.02
2018-06-12T18:25:39.334Z,96145.70
2018-06-12T18:28:06.479Z,96138.81
2018-06-12T18:30:33.763Z,96138.85
2018-06-12T18:33:00.980Z,96141.12
2018-06-12T18:35:28.185Z,96145.31
2018-06-12T18:37:55.395Z,96148.19
2018-06-12T18:40:22.571Z,96146.44
2018-06-12T18:42:49.772Z,96150.45
2018-06-12T18:45:16.924Z,96151.41
2018-06-12T18:47:44.096Z,96155.64
2018-06-12T18:50:11.289Z,96156.81
2018-06-12T18:52:38.439Z,96159.87
2018-06-12T18:55:05.644Z,96158.82
2018-06-12T18:57:32.821Z,96157.72
2018-06-12T18:59:59.964Z,96164.78
2018-06-12T19:02:27.153Z,96179.85
2018-06-12T19:04:54.350Z,96184.19
2018-06-12T19:07:21.530Z,96184.19
2018-06-12T19:09:48.680Z,96187.20
2018-06-12T19:12:15.861Z,96191.02
2018-06-12T19:14:43.042Z,96187.69
2018-06-12T19:17:10.280Z,96191.60
2018-06-12T19:19:37.467Z,96193.70
2018-06-12T19:22:04.700Z,96196.14
2018-06-12T19:24:31.862Z,96198.66
2018-06-12T19:26:59.017Z,96200.72
2018-06-12T19:29:26.134Z,96212.27
2018-06-12T19:31:53.388Z,96212.27
2018-06-12T19:34:20.548Z,96218.33
2018-06-12T19:36:47.687Z,96212.84
2018-06-12T19:39:14.901Z,96215.94
2018-06-12T19:41:42.072Z,96218.25
2018-06-12T19:44:09.277Z,96223.20
2018-06-12T19:46:36.451Z,96220.88
2018-06-12T19:49:03.623Z,96233.64
2018-06-12T19:51:30.789Z,96235.23
2018-06-12T19:53:58.030Z,96233.13
2018-06-12T19:56:25.161Z,96238.39
2018-06-12T19:58:52.352Z,96233.23
2018-06-12T20:01:19.524Z,96240.45
2018-06-12T20:03:46.710Z,96236.05
2018-06-12T20:06:13.902Z,96240.95
2018-06-12T20:08:41.016Z,96233.31
2018-06-12T20:11:08.220Z,96237.44
2018-06-12T20:13:35.421Z,96237.33
2018-06-12T20:16:02.605Z,96241.65
2018-06-12T20:18:29.848Z,96238.52
2018-06-12T20:20:56.985Z,96240.16
2018-06-12T20:23:24.152Z,96232.95
2018-06-12T20:25:51.294Z,96236.05
2018-06-12T20:28:18.474Z,96233.36
2018-06-12T20:30:45.692Z,96234.77
2018-06-12T20:33:12.900Z,96235.95
2018-06-12T20:35:40.005Z,96233.06
2018-06-12T20:38:07.176Z,96236.89
2018-06-12T20:40:34.323Z,96227.81
2018-06-12T20:43:01.524Z,96235.16
2018-06-12T20:45:28.708Z,96240.70
2018-06-12T20:47:55.888Z,96244.63
2018-06-12T20:50:23.089Z,96242.03
2018-06-12T20:52:50.292Z,96239.18
2018-06-12T20:55:17.497Z,96244.68
2018-06-12T20:57:44.697Z,96237.37
2018-06-12T21:00:12.055Z,96241.23
2018-06-12T21:02:39.183Z,96241.55
2018-06-12T21:05:06.577Z,96236.88
2018-06-12T21:07:33.887Z,96236.56
2018-06-12T21:10:01.188Z,96237.25
2018-06-12T21:12:28.432Z,96238.70
2018-06-12T21:14:55.596Z,96240.98
2018-06-12T21:17:22.817Z,96236.88
2018-06-12T21:19:50.061Z,96240.67
2018-06-12T21:22:17.278Z,96235.70
2018-06-12T21:24:44.500Z,96231.91
2018-06-12T21:27:11.685Z,96232.31
2018-06-12T21:29:38.915Z,96236.39
2018-06-12T21:32:06.131Z,96236.00
2018-06-12T21:34:33.301Z,96237.13
2018-06-12T21:37:00.454Z,96233.31
2018-06-12T21:39:27.644Z,96231.44
2018-06-12T21:41:54.869Z,96231.02
2018-06-12T21:44:22.102Z,96234.75
2018-06-12T21:46:49.305Z,96234.26
2018-06-12T21:49:16.460Z,96229.55
2018-06-12T21:51:43.914Z,96227.03
2018-06-12T21:54:11.100Z,96225.48
2018-06-12T21:56:38.290Z,96223.20
2018-06-12T21:59:05.521Z,96232.89
2018-06-12T22:01:32.720Z,96231.39
2018-06-12T22:03:59.899Z,96227.55
2018-06-12T22:06:27.076Z,96232.70
2018-06-12T22:08:54.274Z,96226.81
2018-06-12T22:11:21.429Z,96235.06
2018-06-12T22:13:48.651Z,96239.46
2018-06-12T22:16:20.976Z,96237.67
2018-06-12T22:18:48.694Z,96234.11
2018-06-12T22:21:15.900Z,96230.63
2018-06-12T22:23:43.108Z,96233.79
2018-06-12T22:26:10.275Z,96237.00
2018-06-12T22:28:37.470Z,96245.41
2018-06-12T22:31:04.634Z,96241.63
2018-06-12T22:33:31.848Z,96243.19
2018-06-12T22:35:59.018Z,96241.63
2018-06-12T22:38:26.209Z,96241.85
2018-06-12T22:40:53.400Z,96237.05
2018-06-12T22:43:20.562Z,96234.50
2018-06-12T22:45:47.758Z,96238.46
2018-06-12T22:48:14.953Z,96238.09
2018-06-12T22:50:42.145Z,96238.34
2018-06-12T22:53:09.362Z,96241.04
2018-06-12T22:55:36.558Z,96237.30
2018-06-12T22:58:03.737Z,96238.38
2018-06-12T23:00:30.908Z,96240.04
2018-06-12T23:02:58.099Z,96239.66
2018-06-12T23:05:25.217Z,96237.67
2018-06-12T23:07:52.553Z,96241.06
2018-06-12T23:10:19.726Z,96236.59
2018-06-12T23:12:46.939Z,96241.73
2018-06-12T23:15:14.141Z,96243.70
2018-06-12T23:17:41.377Z,96236.89
2018-06-12T23:20:19.967Z,96240.12
2018-06-12T23:22:47.118Z,96235.36
2018-06-12T23:25:14.317Z,96244.35
2018-06-12T23:27:41.483Z,96250.27
2018-06-12T23:30:08.690Z,96248.23
2018-06-12T23:32:35.893Z,96250.93
2018-06-12T23:35:03.077Z,96244.99
2018-06-12T23:37:30.269Z,96239.45
2018-06-12T23:39:57.479Z,96246.93
2018-06-12T23:42:24.618Z,96246.33
2018-06-12T23:44:51.773Z,96247.86
2018-06-12T23:47:18.982Z,96244.02
2018-06-12T23:49:46.192Z,96241.00
2018-06-12T23:52:13.424Z,96239.19
2018-06-12T23:54:40.641Z,96239.30
2018-06-12T23:57:07.813Z,96241.77
2018-06-12T23:59:35.008Z,96241.04
